Time;durP1;ratioP1;P1;durP2;ratioP2;P2;SDS_P1;SDS_P2;PMS_P1;PMS_P2;Temp;Humidity;BMP_temperature;BMP_pressure;BME280_temperature;BME280_humidity;BME280_pressure;Samples;Min_cycle;Max_cycle;Signal;HPM_P1;HPM_P2
2022/12/27 00:02:11;;;;;;;1.95;1.08;;;;;;;3.18;nan;101452.88;4967267;28;20043;-88
2022/12/27 00:04:36;;;;;;;1.52;1.00;;;;;;;3.18;nan;101443.28;4968918;28;20503;-86
2022/12/27 00:07:02;;;;;;;1.42;0.88;;;;;;;3.17;nan;101446.81;4972097;28;20046;-86
2022/12/27 00:09:27;;;;;;;2.00;1.08;;;;;;;3.11;nan;101448.91;4966987;28;20066;-87
2022/12/27 00:11:52;;;;;;;2.53;1.08;;;;;;;3.05;nan;101455.31;4969497;28;20113;-87
2022/12/27 00:14:17;;;;;;;2.03;1.00;;;;;;;3.02;nan;101458.06;4983145;28;20047;-88
2022/12/27 00:16:43;;;;;;;1.90;1.00;;;;;;;2.96;nan;101455.78;4972917;28;20062;-88
2022/12/27 00:19:08;;;;;;;2.75;1.00;;;;;;;2.94;nan;101468.91;4974548;28;20039;-88
2022/12/27 00:21:35;;;;;;;2.05;1.13;;;;;;;2.94;nan;101468.09;4976780;28;20122;-88
2022/12/27 00:24:00;;;;;;;1.88;0.90;;;;;;;2.92;nan;101459.47;4972214;28;20527;-88
2022/12/27 00:26:28;;;;;;;2.50;1.00;;;;;;;2.90;nan;101467.38;4968831;28;20031;-88
2022/12/27 00:28:54;;;;;;;3.30;1.02;;;;;;;2.86;nan;101467.63;4969730;28;20428;-88
2022/12/27 00:31:20;;;;;;;1.27;0.90;;;;;;;2.80;nan;101473.19;4966464;28;20042;-88
2022/12/27 00:33:48;;;;;;;1.98;0.98;;;;;;;2.75;nan;101482.06;4966407;28;20038;-87
2022/12/27 00:36:16;;;;;;;2.63;1.20;;;;;;;2.67;nan;101478.16;4967369;28;20104;-88
2022/12/27 00:38:42;;;;;;;3.00;1.00;;;;;;;2.64;nan;101475.72;4966490;28;20038;-87
2022/12/27 00:41:07;;;;;;;1.60;1.00;;;;;;;2.62;nan;101480.16;4969473;28;20038;-88
2022/12/27 00:43:33;;;;;;;1.55;0.88;;;;;;;2.58;nan;101478.66;4967600;28;20035;-87
2022/12/27 00:45:58;;;;;;;3.28;1.08;;;;;;;2.53;nan;101487.53;4969098;28;20035;-88
2022/12/27 00:48:24;;;;;;;2.65;1.00;;;;;;;2.52;nan;101487.59;4967722;28;20114;-87
2022/12/27 00:50:50;;;;;;;2.67;1.13;;;;;;;2.46;nan;101482.72;4966009;28;20043;-88
2022/12/27 00:53:15;;;;;;;1.67;1.00;;;;;;;2.42;nan;101495.06;4965513;28;20448;-87
2022/12/27 00:55:44;;;;;;;1.25;0.90;;;;;;;2.39;nan;101482.16;4969405;28;20031;-86
2022/12/27 00:58:09;;;;;;;2.63;1.23;;;;;;;2.37;nan;101488.38;4970197;28;20031;-85
2022/12/27 01:00:35;;;;;;;2.25;1.10;;;;;;;2.39;nan;101489.16;4970717;28;20114;-86
2022/12/27 01:03:01;;;;;;;1.83;1.10;;;;;;;2.40;nan;101493.44;4966454;28;20328;-86
2022/12/27 01:05:26;;;;;;;2.00;1.20;;;;;;;2.41;nan;101490.75;4970506;28;20046;-86
2022/12/27 01:07:51;;;;;;;2.75;1.20;;;;;;;2.46;nan;101490.53;4970818;28;20031;-85
2022/12/27 01:10:17;;;;;;;4.68;1.10;;;;;;;2.49;nan;101506.03;4970371;28;20057;-86
2022/12/27 01:12:42;;;;;;;4.18;1.35;;;;;;;2.46;nan;101495.75;4969236;28;20647;-87
2022/12/27 01:15:08;;;;;;;3.78;1.42;;;;;;;2.46;nan;101503.59;4971493;28;20041;-86
2022/12/27 01:17:34;;;;;;;4.03;1.35;;;;;;;2.50;nan;101512.94;4972847;28;20404;-86
2022/12/27 01:19:59;;;;;;;3.08;1.15;;;;;;;2.57;nan;101514.34;4974589;28;20035;-86
2022/12/27 01:22:24;;;;;;;4.88;1.38;;;;;;;2.65;nan;101519.19;4988800;28;20053;-87
2022/12/27 01:24:50;;;;;;;2.55;1.20;;;;;;;2.63;nan;101521.88;4983678;28;20061;-86
2022/12/27 01:27:15;;;;;;;2.17;1.00;;;;;;;2.62;nan;101520.19;4974642;28;20069;-85
2022/12/27 01:29:40;;;;;;;5.32;1.40;;;;;;;2.63;nan;101519.25;4972555;28;20513;-86
2022/12/27 01:32:06;;;;;;;3.13;1.20;;;;;;;2.70;nan;101523.25;4967186;28;20118;-86
2022/12/27 01:34:31;;;;;;;4.32;1.70;;;;;;;2.76;nan;101525.56;4971510;28;20031;-85
2022/12/27 01:36:56;;;;;;;2.72;1.05;;;;;;;2.82;nan;101531.41;4970520;28;20555;-86
2022/12/27 01:39:22;;;;;;;2.25;1.10;;;;;;;2.82;nan;101527.03;4967183;28;20037;-86
2022/12/27 01:44:56;;;;;;;2.58;1.10;;;;;;;2.73;nan;101527.47;4967723;28;20059;-86
2022/12/27 01:47:52;;;;;;;2.67;1.13;;;;;;;2.68;nan;101535.53;4967193;28;20041;-86
2022/12/27 01:50:26;;;;;;;2.47;1.20;;;;;;;2.66;nan;101526.94;4968055;28;20027;-86
2022/12/27 01:52:57;;;;;;;4.20;1.30;;;;;;;2.64;nan;101523.56;4981877;28;20090;-86
2022/12/27 01:55:26;;;;;;;2.55;1.10;;;;;;;2.63;nan;101532.31;4962467;28;20114;-86
2022/12/27 01:57:55;;;;;;;2.90;1.40;;;;;;;2.60;nan;101529.00;4970156;28;20035;-86
2022/12/27 02:00:21;;;;;;;2.95;1.10;;;;;;;2.57;nan;101543.06;4965903;28;20077;-86
2022/12/27 02:02:48;;;;;;;2.22;1.20;;;;;;;2.56;nan;101551.81;4964877;28;20066;-86
2022/12/27 02:05:17;;;;;;;2.80;1.25;;;;;;;2.57;nan;101544.81;4968849;28;20054;-86
2022/12/27 02:08:07;;;;;;;3.25;1.50;;;;;;;2.59;nan;101551.66;4967357;28;20081;-86
2022/12/27 02:10:33;;;;;;;3.03;1.30;;;;;;;2.61;nan;101557.66;4982213;28;20046;-86
2022/12/27 02:12:59;;;;;;;2.33;1.20;;;;;;;2.56;nan;101562.25;4968294;28;20034;-86
2022/12/27 02:15:24;;;;;;;2.33;1.20;;;;;;;2.51;nan;101562.47;4969613;28;20129;-86
2022/12/27 02:17:50;;;;;;;2.60;1.20;;;;;;;2.49;nan;101564.31;4972432;28;20306;-86
2022/12/27 02:20:21;;;;;;;2.80;1.17;;;;;;;2.47;nan;101567.94;4963033;28;20035;-86
2022/12/27 02:26:10;;;;;;;4.75;1.33;;;;;;;2.37;nan;101564.91;4970325;28;20585;-85
2022/12/27 02:28:52;;;;;;;2.90;1.15;;;;;;;2.34;nan;101557.25;4961116;28;20039;-86
2022/12/27 02:31:32;;;;;;;3.55;1.35;;;;;;;2.31;nan;101559.97;4970347;28;20046;-85
2022/12/27 02:34:01;;;;;;;3.20;1.20;;;;;;;2.31;nan;101565.19;4961969;28;20041;-85
2022/12/27 02:36:30;;;;;;;2.70;1.25;;;;;;;2.26;nan;101562.78;4966740;28;20065;-86
2022/12/27 02:38:59;;;;;;;1.75;1.10;;;;;;;2.22;nan;101574.31;4968602;28;20352;-85
2022/12/27 02:53:04;;;;;;;1.30;0.90;;;;;;;2.00;nan;101574.47;4970122;28;20154;-86
2022/12/27 02:55:32;;;;;;;2.22;1.10;;;;;;;1.99;nan;101575.38;4968771;28;20050;-86
2022/12/27 02:58:16;;;;;;;2.35;0.90;;;;;;;1.96;nan;101582.53;4982812;28;20058;-85
2022/12/27 03:04:21;;;;;;;1.48;1.00;;;;;;;1.82;nan;101578.75;4967825;28;20046;-85
2022/12/27 03:06:55;;;;;;;1.58;0.95;;;;;;;1.81;nan;101571.88;4967676;28;20039;-86
2022/12/27 03:15:56;;;;;;;3.00;1.30;;;;;;;1.93;nan;101578.25;4985719;28;20401;-85
2022/12/27 03:18:21;;;;;;;2.60;1.20;;;;;;;1.95;nan;101581.66;4962161;28;20034;-87
2022/12/27 03:26:18;;;;;;;5.68;1.50;;;;;;;2.06;nan;101587.22;4971844;28;20045;-85
2022/12/27 03:34:30;;;;;;;2.97;1.27;;;;;;;2.19;nan;101595.31;4971126;28;20045;-85
2022/12/27 03:40:26;;;;;;;3.20;1.50;;;;;;;2.33;nan;101592.06;4970874;28;20088;-86
2022/12/27 03:43:12;;;;;;;4.47;1.38;;;;;;;2.36;nan;101585.84;4969832;28;20047;-86
2022/12/27 03:48:46;;;;;;;3.17;1.40;;;;;;;2.46;nan;101594.97;4970231;28;20507;-86
2022/12/27 03:51:13;;;;;;;4.45;1.50;;;;;;;2.46;nan;101593.19;4971190;28;20078;-86
2022/12/27 03:53:42;;;;;;;5.82;1.80;;;;;;;2.47;nan;101589.66;4969790;28;20839;-86
2022/12/27 03:56:08;;;;;;;2.92;1.58;;;;;;;2.52;nan;101592.03;4969860;28;20058;-85
2022/12/27 03:58:34;;;;;;;3.17;1.40;;;;;;;2.54;nan;101587.59;4971549;28;20042;-86
2022/12/27 04:00:59;;;;;;;2.30;1.40;;;;;;;2.56;nan;101588.38;4971420;28;20034;-87
2022/12/27 04:03:25;;;;;;;4.32;1.52;;;;;;;2.60;nan;101584.69;4967506;28;20085;-87
2022/12/27 04:05:50;;;;;;;3.78;1.40;;;;;;;2.61;nan;101583.75;4970126;28;20137;-87
2022/12/27 04:35:39;;;;;;;4.30;1.40;;;;;;;2.54;nan;101579.75;4967179;28;20042;-88
2022/12/27 04:38:04;;;;;;;4.57;1.80;;;;;;;2.55;nan;101581.44;4969537;28;20489;-88
2022/12/27 04:57:01;;;;;;;3.53;1.50;;;;;;;2.53;nan;101573.69;4970820;28;20049;-88
2022/12/27 05:02:10;;;;;;;4.00;1.80;;;;;;;2.55;nan;101574.47;4968974;28;20045;-88
2022/12/27 05:04:38;;;;;;;2.85;1.40;;;;;;;2.55;nan;101589.28;4968102;28;20034;-88
2022/12/27 05:15:21;;;;;;;4.95;1.60;;;;;;;2.55;nan;101597.09;4967706;28;20066;-87
2022/12/27 05:17:47;;;;;;;5.95;1.63;;;;;;;2.60;nan;101602.97;4966966;28;20038;-88
2022/12/27 05:20:12;;;;;;;3.97;1.80;;;;;;;2.61;nan;101602.03;4967726;28;20382;-87
2022/12/27 05:25:33;;;;;;;3.00;1.30;;;;;;;2.60;nan;101609.94;4968126;28;20041;-86
2022/12/27 05:27:58;;;;;;;3.33;1.52;;;;;;;2.61;nan;101620.31;4965061;28;20033;-87
2022/12/27 05:30:24;;;;;;;6.15;2.05;;;;;;;2.63;nan;101621.09;4971697;28;20035;-88
2022/12/27 05:32:53;;;;;;;4.22;1.45;;;;;;;2.67;nan;101624.41;4963385;28;20062;-88
2022/12/27 05:35:18;;;;;;;3.45;1.40;;;;;;;2.65;nan;101628.88;4969347;28;20039;-86
2022/12/27 05:37:43;;;;;;;3.97;1.45;;;;;;;2.63;nan;101634.16;4972425;28;20031;-86
2022/12/27 05:40:09;;;;;;;9.90;1.80;;;;;;;2.62;nan;101627.25;4976106;28;20279;-87
2022/12/27 05:42:35;;;;;;;7.50;1.50;;;;;;;2.57;nan;101631.81;4969388;28;20041;-86
2022/12/27 05:45:00;;;;;;;4.60;1.63;;;;;;;2.55;nan;101625.81;4980216;28;20034;-86
2022/12/27 05:47:25;;;;;;;5.68;1.45;;;;;;;2.53;nan;101625.06;4990557;28;20042;-87
2022/12/27 05:49:51;;;;;;;3.20;1.30;;;;;;;2.48;nan;101629.66;4990274;28;20197;-86
2022/12/27 05:52:16;;;;;;;2.40;1.23;;;;;;;2.41;nan;101626.50;4981818;28;20042;-86
2022/12/27 05:54:41;;;;;;;4.00;1.42;;;;;;;2.39;nan;101630.94;4968041;28;20039;-86
2022/12/27 05:57:06;;;;;;;4.57;2.13;;;;;;;2.44;nan;101631.56;4970076;28;20058;-86
2022/12/27 05:59:32;;;;;;;6.70;1.70;;;;;;;2.46;nan;101627.13;4969106;28;20042;-86
2022/12/27 06:01:57;;;;;;;4.85;1.65;;;;;;;2.50;nan;101633.03;4968486;28;20055;-86
2022/12/27 06:04:22;;;;;;;4.65;1.98;;;;;;;2.53;nan;101625.06;4969700;28;20230;-85
2022/12/27 06:06:47;;;;;;;5.88;1.70;;;;;;;2.53;nan;101625.06;4967549;28;20043;-86
2022/12/27 06:09:13;;;;;;;6.50;1.60;;;;;;;2.55;nan;101631.91;4967568;28;20439;-86
2022/12/27 06:11:38;;;;;;;8.18;1.85;;;;;;;2.52;nan;101634.66;4971591;28;20030;-86
2022/12/27 06:14:03;;;;;;;5.88;1.90;;;;;;;2.55;nan;101639.75;4968663;28;20041;-85
2022/12/27 06:16:29;;;;;;;6.05;1.85;;;;;;;2.56;nan;101643.19;4965636;28;20043;-85
2022/12/27 06:18:54;;;;;;;4.25;1.73;;;;;;;2.53;nan;101644.19;4967429;28;20059;-85
2022/12/27 06:21:20;;;;;;;6.95;1.90;;;;;;;2.48;nan;101647.91;4963796;28;20050;-85
2022/12/27 06:23:47;;;;;;;3.33;1.88;;;;;;;2.45;nan;101650.69;4966969;28;20109;-86
2022/12/27 06:26:21;;;;;;;5.07;1.90;;;;;;;2.43;nan;101645.56;4962939;28;20732;-86
2022/12/27 06:28:48;;;;;;;6.97;2.33;;;;;;;2.42;nan;101650.84;4968006;28;20059;-86
2022/12/27 06:31:14;;;;;;;6.60;1.90;;;;;;;2.41;nan;101650.00;4961924;28;20039;-86
2022/12/27 06:33:39;;;;;;;5.07;2.10;;;;;;;2.38;nan;101642.28;4958951;28;20125;-85
2022/12/27 06:36:07;;;;;;;6.72;2.60;;;;;;;2.42;nan;101645.63;4968928;28;20658;-86
2022/12/27 06:38:32;;;;;;;7.38;2.45;;;;;;;2.40;nan;101660.50;4971887;28;20624;-85
2022/12/27 06:41:06;;;;;;;7.03;2.22;;;;;;;2.36;nan;101658.94;4973162;28;20035;-86
2022/12/27 06:43:32;;;;;;;5.65;2.42;;;;;;;2.33;nan;101654.72;4970246;28;20601;-85
2022/12/27 06:46:00;;;;;;;6.15;2.50;;;;;;;2.34;nan;101659.88;4969338;28;20037;-85
2022/12/27 06:48:26;;;;;;;5.93;2.55;;;;;;;2.35;nan;101665.94;4968765;28;20031;-86
2022/12/27 06:50:52;;;;;;;7.10;2.08;;;;;;;2.32;nan;101668.69;4969050;28;20409;-86
2022/12/27 06:53:17;;;;;;;6.22;2.40;;;;;;;2.31;nan;101667.84;4970089;28;20031;-86
2022/12/27 06:55:43;;;;;;;5.65;2.22;;;;;;;2.32;nan;101668.69;4970272;28;20045;-85
2022/12/27 06:58:08;;;;;;;7.57;2.40;;;;;;;2.35;nan;101671.16;4971149;28;20031;-86
2022/12/27 07:00:33;;;;;;;5.05;2.50;;;;;;;2.36;nan;101667.63;4974869;28;20039;-86
2022/12/27 07:02:58;;;;;;;8.40;2.70;;;;;;;2.39;nan;101679.69;4975094;28;20086;-86
2022/12/27 07:05:24;;;;;;;6.45;2.70;;;;;;;2.42;nan;101675.16;4970468;28;20471;-86
2022/12/27 07:07:52;;;;;;;5.05;2.50;;;;;;;2.40;nan;101676.16;4967721;28;20043;-86
2022/12/27 07:10:17;;;;;;;10.32;2.78;;;;;;;2.39;nan;101674.47;4972107;28;20056;-85
2022/12/27 07:12:42;;;;;;;5.35;2.67;;;;;;;2.42;nan;101674.31;4973210;28;20529;-86
2022/12/27 07:15:08;;;;;;;6.53;2.55;;;;;;;2.42;nan;101672.56;4970777;28;20043;-86
2022/12/27 07:17:35;;;;;;;4.85;2.30;;;;;;;2.41;nan;101677.84;4972626;28;20126;-85
2022/12/27 07:20:00;;;;;;;5.57;2.78;;;;;;;2.40;nan;101676.16;4971945;28;20234;-86
2022/12/27 07:22:26;;;;;;;7.20;3.17;;;;;;;2.42;nan;101682.16;4966550;28;20381;-86
2022/12/27 07:24:52;;;;;;;7.40;2.53;;;;;;;2.44;nan;101688.16;4974604;28;20039;-85
2022/12/27 07:27:17;;;;;;;8.15;2.90;;;;;;;2.43;nan;101686.44;4968056;28;20066;-86
2022/12/27 07:29:43;;;;;;;7.50;2.83;;;;;;;2.46;nan;101697.63;4967122;28;20114;-86
2022/12/27 07:32:08;;;;;;;7.63;2.95;;;;;;;2.49;nan;101700.06;4968833;28;20058;-85
2022/12/27 07:34:33;;;;;;;7.32;3.08;;;;;;;2.54;nan;101702.47;4968505;28;20505;-88
2022/12/27 07:36:59;;;;;;;9.27;3.15;;;;;;;2.61;nan;101710.88;4972445;28;20077;-87
2022/12/27 07:39:26;;;;;;;5.20;2.78;;;;;;;2.64;nan;101700.28;4969045;28;20130;-88
2022/12/27 07:41:51;;;;;;;6.03;2.83;;;;;;;2.66;nan;101709.72;4971312;28;20126;-85
2022/12/27 07:44:16;;;;;;;7.13;2.63;;;;;;;2.69;nan;101712.22;4972510;28;20173;-87
2022/12/27 07:46:42;;;;;;;4.90;2.92;;;;;;;2.74;nan;101725.91;4971442;28;20134;-85
2022/12/27 07:49:10;;;;;;;9.68;3.03;;;;;;;2.74;nan;101722.44;4967629;28;20038;-87
2022/12/27 07:51:35;;;;;;;8.75;2.90;;;;;;;2.76;nan;101728.44;4973144;28;20615;-86
2022/12/27 07:54:00;;;;;;;4.82;2.67;;;;;;;2.78;nan;101734.44;4973953;28;20053;-88
2022/12/27 07:56:27;;;;;;;6.72;2.60;;;;;;;2.83;nan;101734.22;4983558;28;20042;-87
2022/12/27 07:58:55;;;;;;;7.03;3.05;;;;;;;2.86;nan;101736.69;4988851;28;20038;-88
2022/12/27 08:01:21;;;;;;;9.07;2.92;;;;;;;2.86;nan;101729.72;4984598;28;20042;-86
2022/12/27 08:03:47;;;;;;;10.43;2.90;;;;;;;2.91;nan;101734.72;4980784;28;20034;-86
2022/12/27 08:06:27;;;;;;;6.50;2.67;;;;;;;2.92;nan;101741.63;4982581;28;20151;-85
2022/12/27 08:08:54;;;;;;;7.47;3.08;;;;;;;2.95;nan;101744.09;4983366;28;20035;-88
2022/12/27 08:11:19;;;;;;;3.90;2.58;;;;;;;2.98;nan;101742.19;4985615;28;20035;-87
2022/12/27 08:13:45;;;;;;;6.15;3.00;;;;;;;3.03;nan;101738.47;4973939;28;20064;-86
2022/12/27 08:16:16;;;;;;;6.13;2.60;;;;;;;3.08;nan;101741.75;4971951;28;20528;-86
2022/12/27 08:18:41;;;;;;;5.38;2.63;;;;;;;3.09;nan;101739.03;4970815;28;20192;-85
2022/12/27 08:21:06;;;;;;;5.53;2.60;;;;;;;3.14;nan;101738.81;4971226;28;20133;-86
2022/12/27 08:23:32;;;;;;;7.18;2.75;;;;;;;3.19;nan;101752.50;4966399;28;20039;-87
2022/12/27 08:25:58;;;;;;;5.63;2.45;;;;;;;3.23;nan;101750.63;4973971;28;20555;-86
2022/12/27 08:28:23;;;;;;;6.45;2.50;;;;;;;3.31;nan;101751.06;4968431;28;20126;-86
2022/12/27 08:30:48;;;;;;;6.20;2.47;;;;;;;3.36;nan;101755.19;4972235;28;20035;-85
2022/12/27 08:33:14;;;;;;;6.57;2.80;;;;;;;3.38;nan;101755.09;4966878;28;20039;-87
2022/12/27 08:35:44;;;;;;;6.80;2.72;;;;;;;3.42;nan;101751.41;4963793;28;20043;-85
2022/12/27 08:38:10;;;;;;;6.20;2.33;;;;;;;3.49;nan;101755.41;4970096;28;20070;-86
2022/12/27 08:40:39;;;;;;;6.25;2.55;;;;;;;3.56;nan;101755.97;4969712;28;20476;-85
2022/12/27 08:43:04;;;;;;;3.92;2.50;;;;;;;3.63;nan;101753.91;4975455;28;20022;-88
2022/12/27 08:45:30;;;;;;;7.63;2.55;;;;;;;3.73;nan;101758.56;4977800;28;20046;-86
2022/12/27 08:47:59;;;;;;;4.13;2.40;;;;;;;3.82;nan;101759.88;4972411;28;20146;-85
2022/12/27 08:50:25;;;;;;;6.13;2.58;;;;;;;3.88;nan;101761.34;4966451;28;20071;-86
2022/12/27 08:52:51;;;;;;;6.30;2.38;;;;;;;3.86;nan;101758.78;4970214;28;20042;-87
2022/12/27 08:55:16;;;;;;;7.10;2.50;;;;;;;3.88;nan;101754.31;4969857;28;20045;-89
2022/12/27 08:57:42;;;;;;;7.35;2.70;;;;;;;3.90;nan;101751.63;4970681;28;20038;-87
2022/12/27 09:00:08;;;;;;;6.43;2.78;;;;;;;3.90;nan;101752.47;4968528;28;20035;-87
2022/12/27 09:02:33;;;;;;;7.07;2.70;;;;;;;3.91;nan;101756.81;4967097;28;20477;-87
2022/12/27 09:04:58;;;;;;;4.35;2.53;;;;;;;3.97;nan;101764.31;4973277;28;20031;-87
2022/12/27 09:07:24;;;;;;;8.32;2.78;;;;;;;4.02;nan;101764.94;4973115;28;20130;-87
2022/12/27 09:09:49;;;;;;;6.30;2.50;;;;;;;4.07;nan;101761.22;4972076;28;20050;-87
2022/12/27 09:12:14;;;;;;;8.85;2.50;;;;;;;4.07;nan;101759.47;4968002;28;20042;-85
2022/12/27 09:14:40;;;;;;;7.45;2.42;;;;;;;4.09;nan;101762.84;4971473;28;20484;-86
2022/12/27 09:17:07;;;;;;;8.60;2.92;;;;;;;4.13;nan;101758.31;4972185;28;20034;-86
2022/12/27 09:19:33;;;;;;;9.52;3.28;;;;;;;4.14;nan;101770.47;4970886;28;20408;-86
2022/12/27 09:21:58;;;;;;;6.30;2.83;;;;;;;4.20;nan;101770.16;4969716;28;20035;-88
2022/12/27 09:24:24;;;;;;;7.18;2.85;;;;;;;4.25;nan;101768.13;4968428;28;20039;-87
2022/12/27 09:26:49;;;;;;;8.05;2.50;;;;;;;4.29;nan;101767.06;4968082;28;20042;-85
2022/12/27 09:29:14;;;;;;;7.38;2.53;;;;;;;4.33;nan;101755.47;4971019;28;20037;-86
2022/12/27 09:31:39;;;;;;;5.30;2.28;;;;;;;4.42;nan;101764.63;4971801;28;20493;-86
2022/12/27 09:34:05;;;;;;;5.85;2.70;;;;;;;4.47;nan;101768.69;4971530;28;20568;-86
2022/12/27 09:36:30;;;;;;;5.15;2.70;;;;;;;4.52;nan;101770.22;4972035;28;20053;-86
2022/12/27 09:38:57;;;;;;;7.82;2.13;;;;;;;4.59;nan;101768.97;4970091;28;20570;-85
2022/12/27 09:42:00;;;;;;;5.40;2.30;;;;;;;4.63;nan;101773.97;4972322;28;20033;-86
2022/12/27 09:44:33;;;;;;;4.70;2.33;;;;;;;4.70;nan;101779.72;4970815;28;20097;-86
2022/12/27 09:47:14;;;;;;;9.75;2.67;;;;;;;4.75;nan;101784.72;4966072;28;20029;-85
2022/12/27 09:49:44;;;;;;;8.07;2.67;;;;;;;4.82;nan;101779.03;4970064;28;20035;-86
2022/12/27 09:52:17;;;;;;;4.53;2.60;;;;;;;4.85;nan;101776.25;4970246;28;20042;-85
2022/12/27 09:54:56;;;;;;;6.13;2.88;;;;;;;5.01;nan;101776.25;4987039;28;20067;-85
2022/12/27 09:57:37;;;;;;;4.20;2.10;;;;;;;5.19;nan;101779.63;4967623;28;20043;-87
2022/12/27 10:00:11;;;;;;;7.22;2.33;;;;;;;5.40;nan;101784.59;4972261;28;20030;-86
2022/12/27 10:02:36;;;;;;;7.28;2.70;;;;;;;5.56;nan;101777.53;4971509;28;20062;-87
2022/12/27 10:05:02;;;;;;;7.53;2.63;;;;;;;5.69;nan;101775.88;4969831;28;20062;-86
2022/12/27 10:07:40;;;;;;;6.30;2.38;;;;;;;5.74;nan;101775.59;4968565;28;20057;-85
2022/12/27 10:10:41;;;;;;;7.43;2.78;;;;;;;5.80;nan;101770.00;4971262;28;20031;-87
2022/12/27 10:13:22;;;;;;;5.93;2.47;;;;;;;5.85;nan;101775.00;4971416;28;20066;-86
2022/12/27 10:16:08;;;;;;;6.32;2.35;;;;;;;5.82;nan;101776.03;4972370;28;20042;-86
2022/12/27 10:18:42;;;;;;;6.32;2.13;;;;;;;5.85;nan;101777.63;4966664;28;20038;-87
2022/12/27 10:21:16;;;;;;;5.68;2.30;;;;;;;5.85;nan;101781.09;4969626;28;20046;-86
2022/12/27 10:23:48;;;;;;;4.43;2.15;;;;;;;5.86;nan;101771.41;4971814;28;20085;-86
2022/12/27 10:26:16;;;;;;;8.40;2.40;;;;;;;5.97;nan;101776.91;4973367;28;20801;-87
2022/12/27 10:28:49;;;;;;;9.02;2.60;;;;;;;6.16;nan;101769.63;4972363;28;20541;-86
2022/12/27 10:31:18;;;;;;;7.07;2.55;;;;;;;6.35;nan;101779.84;4970533;28;20050;-86
2022/12/27 10:33:45;;;;;;;6.45;2.17;;;;;;;6.45;nan;101779.31;4970586;28;20049;-86
2022/12/27 10:36:15;;;;;;;5.60;2.25;;;;;;;6.57;nan;101776.75;4966923;28;20101;-86
2022/12/27 10:38:40;;;;;;;4.70;2.08;;;;;;;6.54;nan;101770.84;4970215;28;20053;-87
2022/12/27 10:41:18;;;;;;;5.32;2.17;;;;;;;6.66;nan;101767.47;4972337;28;20034;-87
2022/12/27 10:43:48;;;;;;;7.65;2.38;;;;;;;6.72;nan;101760.97;4969039;28;20043;-87
2022/12/27 10:46:27;;;;;;;7.93;2.47;;;;;;;6.70;nan;101765.50;4971329;28;20058;-86
2022/12/27 10:48:52;;;;;;;7.18;2.00;;;;;;;6.66;nan;101761.38;4972293;28;20054;-87
2022/12/27 10:51:17;;;;;;;5.73;2.43;;;;;;;6.64;nan;101755.34;4969692;28;20708;-87
2022/12/27 10:53:45;;;;;;;5.57;2.00;;;;;;;6.59;nan;101766.16;4972990;28;20310;-86
2022/12/27 10:56:20;;;;;;;3.90;2.20;;;;;;;6.64;nan;101761.44;4976265;28;20062;-86
2022/12/27 10:58:51;;;;;;;7.70;2.22;;;;;;;6.70;nan;101755.81;4970582;28;20129;-86
2022/12/27 11:01:24;;;;;;;5.65;2.30;;;;;;;6.85;nan;101766.31;4987663;28;20139;-87
2022/12/27 11:03:50;;;;;;;6.85;2.10;;;;;;;7.01;nan;101767.88;4971097;28;20050;-87
2022/12/27 11:06:23;;;;;;;4.22;2.00;;;;;;;7.16;nan;101778.34;4971279;28;20408;-87
2022/12/27 11:08:49;;;;;;;6.97;2.35;;;;;;;7.42;nan;101774.84;4976327;28;20441;-87
2022/12/27 11:11:21;;;;;;;4.18;1.90;;;;;;;7.57;nan;101772.16;4972086;28;20038;-88
2022/12/27 11:13:47;;;;;;;6.45;2.47;;;;;;;7.66;nan;101774.19;4968953;28;20074;-87
2022/12/27 11:16:34;;;;;;;6.03;1.90;;;;;;;7.66;nan;101775.03;4969996;28;20031;-86
2022/12/27 11:19:00;;;;;;;6.82;2.20;;;;;;;7.60;nan;101777.22;4966559;28;20111;-87
2022/12/27 11:21:28;;;;;;;5.72;1.95;;;;;;;7.45;nan;101768.53;4981154;28;20039;-86
2022/12/27 11:23:58;;;;;;;10.38;2.38;;;;;;;7.26;nan;101766.28;4968826;28;20050;-87
2022/12/27 11:26:28;;;;;;;5.30;2.15;;;;;;;7.13;nan;101768.03;4965251;28;20075;-87
2022/12/27 11:28:58;;;;;;;6.22;1.85;;;;;;;7.04;nan;101758.94;4966511;28;20039;-86
2022/12/27 11:31:37;;;;;;;6.82;2.00;;;;;;;6.92;nan;101763.19;4959170;28;20035;-88
2022/12/27 11:34:17;;;;;;;6.82;2.40;;;;;;;6.80;nan;101763.97;4967434;28;20126;-87
2022/12/27 11:36:46;;;;;;;6.05;2.10;;;;;;;6.78;nan;101761.44;4982446;28;20030;-87
2022/12/27 11:40:14;;;;;;;5.53;2.10;;;;;;;6.77;nan;101756.28;4965769;28;20373;-86
2022/12/27 11:42:43;;;;;;;6.63;2.50;;;;;;;6.85;nan;101755.78;4946800;28;20039;-86
2022/12/27 11:45:21;;;;;;;6.57;2.08;;;;;;;7.06;nan;101762.31;4967812;28;20067;-84
2022/12/27 11:48:02;;;;;;;6.07;2.08;;;;;;;7.23;nan;101761.22;4981968;28;20040;-85
2022/12/27 11:50:46;;;;;;;5.05;2.08;;;;;;;7.48;nan;101760.44;4969653;28;20192;-85
2022/12/27 11:53:48;;;;;;;6.28;2.22;;;;;;;7.56;nan;101768.69;4973443;28;20452;-85
2022/12/27 11:56:23;;;;;;;;;;;;;;;7.58;nan;101755.41;4990068;28;20039;-86
2022/12/27 11:59:20;;;;;;;7.53;2.40;;;;;;;7.68;nan;101761.78;4995276;28;19960;-86
2022/12/27 12:02:12;;;;;;;4.35;1.95;;;;;;;7.64;nan;101744.47;4992797;28;20062;-88
2022/12/27 12:05:06;;;;;;;4.82;2.05;;;;;;;7.62;nan;101747.22;4989900;28;20039;-85
2022/12/27 12:07:56;;;;;;;4.75;1.95;;;;;;;7.60;nan;101749.13;4983886;28;20037;-86
2022/12/27 12:10:47;;;;;;;4.60;1.88;;;;;;;7.59;nan;101746.59;4974678;28;20034;-85
2022/12/27 12:13:53;;;;;;;5.03;1.92;;;;;;;7.66;nan;101745.22;4969711;28;20039;-85
2022/12/27 12:16:39;;;;;;;5.45;1.98;;;;;;;7.66;nan;101738.16;4973991;28;20035;-85
2022/12/27 12:19:23;;;;;;;5.70;2.00;;;;;;;7.70;nan;101738.81;4971511;28;20252;-84
2022/12/27 12:22:08;;;;;;;4.38;1.55;;;;;;;7.88;nan;101736.72;4986859;28;20146;-85
2022/12/27 12:25:12;;;;;;;3.72;1.88;;;;;;;7.81;nan;101736.28;4982651;28;20062;-86
2022/12/27 12:27:59;;;;;;;5.20;1.90;;;;;;;7.62;nan;101736.69;4961577;28;20059;-85
2022/12/27 12:30:50;;;;;;;5.38;1.85;;;;;;;7.59;nan;101739.53;4970505;28;20725;-85
2022/12/27 12:33:27;;;;;;;5.80;2.03;;;;;;;7.69;nan;101739.75;4965552;28;20062;-85
2022/12/27 12:36:34;;;;;;;6.63;1.73;;;;;;;7.92;nan;101729.47;4970538;28;20114;-86
2022/12/27 12:39:25;;;;;;;5.53;1.80;;;;;;;8.06;nan;101734.63;4970834;28;20043;-86
2022/12/27 12:42:18;;;;;;;5.85;2.00;;;;;;;8.04;nan;101732.09;4968986;28;20047;-87
2022/12/27 12:45:15;;;;;;;3.85;1.70;;;;;;;7.90;nan;101719.03;4970442;28;20046;-86
2022/12/27 12:47:51;;;;;;;5.15;1.95;;;;;;;7.78;nan;101720.69;4966006;28;20043;-86
2022/12/27 12:50:25;;;;;;;6.28;2.22;;;;;;;7.75;nan;101720.91;4964403;28;20043;-87
2022/12/27 12:53:22;;;;;;;5.28;1.70;;;;;;;7.69;nan;101723.13;4970530;28;20043;-85
2022/12/27 12:55:53;;;;;;;5.85;2.33;;;;;;;7.58;nan;101708.03;4971112;28;20039;-86
2022/12/27 12:58:34;;;;;;;;;;;;;;;7.40;nan;101710.94;4971214;28;20031;-85
2022/12/27 13:01:18;;;;;;;4.93;1.67;;;;;;;7.23;nan;101712.06;4970196;28;19933;-85
2022/12/27 13:03:49;;;;;;;4.78;2.22;;;;;;;7.16;nan;101702.91;4969346;28;20042;-86
2022/12/27 13:06:40;;;;;;;4.65;1.58;;;;;;;7.18;nan;101706.28;4965901;28;20040;-86
2022/12/27 13:09:27;;;;;;;3.83;1.83;;;;;;;7.26;nan;101713.66;4971313;28;20134;-86
2022/12/27 13:12:11;;;;;;;3.75;1.50;;;;;;;7.29;nan;101713.44;4971360;28;20270;-85
2022/12/27 13:15:13;;;;;;;4.82;1.80;;;;;;;7.32;nan;101705.38;4970464;28;20137;-85
2022/12/27 13:18:13;;;;;;;5.45;1.95;;;;;;;7.35;nan;101706.97;4971705;28;20042;-85
2022/12/27 13:20:41;;;;;;;5.65;2.45;;;;;;;7.29;nan;101716.06;4972978;28;20416;-85
2022/12/27 13:23:22;;;;;;;7.80;2.08;;;;;;;7.29;nan;101710.81;4973255;28;20095;-85
2022/12/27 13:26:00;;;;;;;6.22;2.13;;;;;;;7.31;nan;101708.09;4993717;28;20038;-85
2022/12/27 13:28:49;;;;;;;6.32;2.10;;;;;;;7.33;nan;101714.09;4988644;28;20085;-85
2022/12/27 13:31:36;;;;;;;5.57;1.95;;;;;;;7.39;nan;101714.53;4971941;28;20061;-84
2022/12/27 13:34:19;;;;;;;7.60;2.40;;;;;;;7.41;nan;101717.06;4962183;28;20315;-85
2022/12/27 13:37:04;;;;;;;6.20;2.00;;;;;;;7.40;nan;101710.94;4969639;28;20039;-84
2022/12/27 13:40:07;;;;;;;6.70;2.22;;;;;;;7.30;nan;101715.16;4968135;28;20034;-84
2022/12/27 13:43:05;;;;;;;9.75;2.25;;;;;;;7.14;nan;101702.16;4968841;28;20042;-87
2022/12/27 13:46:22;;;;;;;4.00;2.00;;;;;;;6.93;nan;101707.00;4968015;28;20030;-85
2022/12/27 13:49:12;;;;;;;5.40;1.83;;;;;;;6.78;nan;101705.38;4976185;28;20046;-87
2022/12/27 13:51:49;;;;;;;5.50;2.20;;;;;;;6.68;nan;101705.13;4973188;28;20640;-86
2022/12/27 13:55:11;;;;;;;7.22;2.40;;;;;;;6.63;nan;101698.50;4971342;28;20027;-85
2022/12/27 13:58:22;;;;;;;6.28;2.20;;;;;;;6.56;nan;101700.66;4969591;28;20170;-85